Time;durP1;ratioP1;P1;durP2;ratioP2;P2;SDS_P1;SDS_P2;PMS_P1;PMS_P2;Temp;Humidity;BMP_temperature;BMP_pressure;BME280_temperature;BME280_humidity;BME280_pressure;Samples;Min_cycle;Max_cycle;Signal;HPM_P1;HPM_P2
2023/06/09 00:00:13;;;;;;;;;;;;;;;17.13;59.26;101433.13;5049612;28;1991;-78
2023/06/09 00:02:39;;;;;;;;;;;;;;;17.15;59.59;101422.53;5054772;28;1076;-79
2023/06/09 00:05:04;;;;;;;;;;;;;;;17.09;59.86;101429.19;5055792;28;1093;-78
2023/06/09 00:07:33;;;;;;;;;;;;;;;17.06;59.20;101431.28;5049796;28;1347;-78
2023/06/09 00:09:58;;;;;;;;;;;;;;;17.04;59.80;101433.25;5058347;28;1861;-78
2023/06/09 00:12:23;;;;;;;;;;;;;;;16.99;59.73;101425.84;5051834;28;1095;-78
2023/06/09 00:14:49;;;;;;;;;;;;;;;16.98;59.57;101432.06;5060910;28;1697;-79
2023/06/09 00:17:14;;;;;;;;;;;;;;;16.93;59.75;101432.50;5053036;28;1688;-78
2023/06/09 00:19:41;;;;;;;;;;;;;;;16.90;59.77;101427.56;5053367;28;1890;-78
2023/06/09 00:22:13;;;;;;;;;;;;;;;16.86;59.77;101426.25;5056820;28;1413;-78
2023/06/09 00:24:38;;;;;;;;;;;;;;;16.86;60.07;101426.25;5054549;28;1646;-79
2023/06/09 00:27:04;;;;;;;;;;;;;;;16.88;59.55;101423.47;5049897;28;1576;-78
2023/06/09 00:29:29;;;;;;;;;;;;;;;16.85;59.72;101419.31;5052046;28;1593;-77
2023/06/09 00:31:55;;;;;;;;;;;;;;;16.85;59.65;101419.31;5060406;28;1482;-78
2023/06/09 00:34:20;;;;;;;;;;;;;;;16.83;59.67;101420.47;5064224;28;1088;-78
2023/06/09 00:36:45;;;;;;;;;;;;;;;16.81;59.77;101415.38;5051030;28;1253;-79
2023/06/09 00:39:10;;;;;;;;;;;;;;;16.77;59.74;101416.66;5055946;28;1397;-78
2023/06/09 00:41:36;;;;;;;;;;;;;;;16.76;59.75;101420.25;5055897;28;1941;-78
2023/06/09 00:44:02;;;;;;;;;;;;;;;16.74;59.78;101406.47;5046949;28;1260;-79
2023/06/09 00:46:27;;;;;;;;;;;;;;;16.73;60.31;101402.19;5055538;28;1200;-78
2023/06/09 00:48:52;;;;;;;;;;;;;;;16.70;59.86;101402.50;5053009;28;1037;-78
2023/06/09 00:51:18;;;;;;;;;;;;;;;16.66;59.94;101406.38;5050928;28;1246;-79
2023/06/09 00:53:43;;;;;;;;;;;;;;;16.63;60.22;101404.03;5056220;28;1387;-77
2023/06/09 00:56:08;;;;;;;;;;;;;;;16.61;60.18;101416.47;5061949;28;1360;-76
2023/06/09 00:58:33;;;;;;;;;;;;;;;16.56;60.88;101413.47;5057045;28;1289;-78
2023/06/09 01:00:59;;;;;;;;;;;;;;;16.51;60.36;101410.47;5060080;28;1930;-77
2023/06/09 01:03:26;;;;;;;;;;;;;;;16.52;60.40;101409.53;5062964;28;1139;-78
2023/06/09 01:05:54;;;;;;;;;;;;;;;16.49;60.47;101418.50;5054670;28;1372;-79
2023/06/09 01:08:32;;;;;;;;;;;;;;;16.44;60.87;101411.06;5051345;28;1475;-79
2023/06/09 01:11:16;;;;;;;;;;;;;;;16.39;60.92;101413.31;5053814;28;1863;-78
2023/06/09 01:13:41;;;;;;;;;;;;;;;16.32;61.46;101404.41;5048173;28;1325;-78
2023/06/09 01:16:11;;;;;;;;;;;;;;;16.25;61.81;101416.47;5055281;28;1285;-78
2023/06/09 01:18:36;;;;;;;;;;;;;;;16.23;61.71;101407.94;5057913;28;1188;-77
2023/06/09 01:21:14;;;;;;;;;;;;;;;16.23;61.21;101407.09;5049421;28;1902;-78
2023/06/09 01:24:09;;;;;;;;;;;;;;;16.22;62.20;101411.50;5045335;28;1826;-78
2023/06/09 01:26:38;;;;;;;;;;;;;;;16.19;61.74;101406.59;5050022;28;1413;-79
2023/06/09 01:29:04;;;;;;;;;;;;;;;16.16;62.01;101418.16;5057810;28;1255;-79
2023/06/09 01:31:29;;;;;;;;;;;;;;;16.17;61.66;101408.50;5049546;28;1274;-78
2023/06/09 01:33:55;;;;;;;;;;;;;;;16.16;61.76;101412.09;5052313;28;1565;-78
2023/06/09 01:36:20;;;;;;;;;;;;;;;16.15;61.93;101415.69;5057345;28;1083;-79
2023/06/09 01:38:46;;;;;;;;;;;;;;;16.14;61.79;101409.63;5046526;28;1579;-79
2023/06/09 01:41:11;;;;;;;;;;;;;;;16.10;62.43;101402.22;5040244;28;1894;-79
2023/06/09 01:43:36;;;;;;;;;;;;;;;16.08;62.62;101404.16;5059557;28;1595;-78
2023/06/09 01:46:02;;;;;;;;;;;;;;;16.06;62.18;101400.88;5056601;28;1291;-78
2023/06/09 01:48:39;;;;;;;;;;;;;;;16.00;62.43;101397.06;5050669;28;1311;-78
2023/06/09 01:51:14;;;;;;;;;;;;;;;15.93;62.71;101402.03;5060322;28;1328;-78
2023/06/09 01:53:41;;;;;;;;;;;;;;;15.90;62.99;101391.88;5059389;28;1332;-78
2023/06/09 01:56:09;;;;;;;;;;;;;;;15.88;63.01;101393.78;5063641;28;1346;-79
2023/06/09 01:58:41;;;;;;;;;;;;;;;15.86;62.92;101395.75;5073568;28;1336;-79
2023/06/09 02:01:07;;;;;;;;;;;;;;;15.83;63.24;101396.03;5059017;28;1889;-78
2023/06/09 02:03:35;;;;;;;;;;;;;;;15.81;63.33;101387.50;5052101;28;1459;-78
2023/06/09 02:06:02;;;;;;;;;;;;;;;15.80;63.15;101396.31;5052040;28;1328;-79
2023/06/09 02:08:29;;;;;;;;;;;;;;;15.78;63.48;101382.56;5056314;28;1188;-77
2023/06/09 02:10:54;;;;;;;;;;;;;;;15.76;63.50;101391.53;5052550;28;1404;-78
2023/06/09 02:13:19;;;;;;;;;;;;;;;15.73;63.53;101379.56;5053939;28;1340;-78
2023/06/09 02:15:48;;;;;;;;;;;;;;;15.71;63.52;101381.50;5050783;28;1172;-77
2023/06/09 02:18:15;;;;;;;;;;;;;;;15.66;64.00;101379.34;5066051;28;1231;-78
2023/06/09 02:20:42;;;;;;;;;;;;;;;15.60;63.91;101379.88;5047743;28;1898;-78
2023/06/09 02:23:07;;;;;;;;;;;;;;;15.57;64.29;101393.22;5063768;28;1313;-78
2023/06/09 02:25:32;;;;;;;;;;;;;;;15.55;64.11;101382.09;5057553;28;1282;-78
2023/06/09 02:28:02;;;;;;;;;;;;;;;15.54;64.47;101374.38;5057643;28;1549;-78
2023/06/09 02:30:27;;;;;;;;;;;;;;;15.50;64.59;101378.25;5047396;28;1360;-79
2023/06/09 02:32:53;;;;;;;;;;;;;;;15.48;64.81;101385.41;5052400;28;1316;-79
2023/06/09 02:35:18;;;;;;;;;;;;;;;15.46;64.60;101385.56;5052148;28;1611;-77
2023/06/09 02:37:43;;;;;;;;;;;;;;;15.43;65.10;101377.19;5055949;28;1291;-79
2023/06/09 02:40:09;;;;;;;;;;;;;;;15.36;66.55;101388.19;5055909;28;1894;-77
2023/06/09 02:42:34;;;;;;;;;;;;;;;15.26;65.56;101382.19;5045002;28;1324;-78
2023/06/09 02:45:00;;;;;;;;;;;;;;;15.24;65.56;101378.88;5046288;28;1313;-78
2023/06/09 02:47:25;;;;;;;;;;;;;;;15.20;66.13;101380.16;5056274;28;1052;-78
2023/06/09 02:49:51;;;;;;;;;;;;;;;15.18;65.80;101381.25;5058051;28;1310;-79
2023/06/09 02:52:16;;;;;;;;;;;;;;;15.18;65.87;101381.25;5051569;28;1200;-78
2023/06/09 02:54:41;;;;;;;;;;;;;;;15.17;66.03;101383.03;5046144;28;1348;-79
2023/06/09 02:57:07;;;;;;;;;;;;;;;15.15;65.85;101384.97;5057663;28;1136;-79
2023/06/09 02:59:32;;;;;;;;;;;;;;;15.12;65.86;101387.84;5045110;28;1325;-79
2023/06/09 03:01:57;;;;;;;;;;;;;;;15.09;66.25;101396.00;5063461;28;1950;-79
2023/06/09 03:04:23;;;;;;;;;;;;;;;15.06;66.36;101385.81;5048447;28;1321;-78
2023/06/09 03:06:50;;;;;;;;;;;;;;;15.05;66.34;101378.94;5056481;28;1300;-78
2023/06/09 03:09:15;;;;;;;;;;;;;;;15.02;66.58;101384.44;5060843;28;1220;-79
2023/06/09 03:11:40;;;;;;;;;;;;;;;14.99;66.69;101379.50;5062553;28;1350;-79
2023/06/09 03:14:07;;;;;;;;;;;;;;;14.96;67.28;101375.38;5051348;28;1367;-79
2023/06/09 03:16:32;;;;;;;;;;;;;;;14.94;67.09;101392.16;5048163;28;1474;-79
2023/06/09 03:18:57;;;;;;;;;;;;;;;14.87;67.04;101382.28;5055924;28;1418;-79
2023/06/09 03:21:24;;;;;;;;;;;;;;;14.83;68.07;101369.63;5077219;28;1918;-78
2023/06/09 03:23:49;;;;;;;;;;;;;;;14.79;67.71;101369.06;5053965;28;1293;-79
2023/06/09 03:26:15;;;;;;;;;;;;;;;14.79;68.08;101381.31;5051612;28;1297;-79
2023/06/09 03:28:40;;;;;;;;;;;;;;;14.81;67.68;101388.06;5052433;28;1557;-78
2023/06/09 03:31:06;;;;;;;;;;;;;;;14.77;67.61;101376.22;5055365;28;1659;-78
2023/06/09 03:33:31;;;;;;;;;;;;;;;14.74;67.96;101389.56;5050591;28;1456;-79
2023/06/09 03:35:56;;;;;;;;;;;;;;;14.77;68.02;101391.06;5037157;28;1348;-78
2023/06/09 03:38:21;;;;;;;;;;;;;;;14.75;68.26;101393.84;5056797;28;1105;-81
2023/06/09 03:40:47;;;;;;;;;;;;;;;14.76;67.88;101389.44;5055540;28;1967;-79
2023/06/09 03:43:12;;;;;;;;;;;;;;;14.72;68.06;101383.66;5070142;28;1277;-79
2023/06/09 03:45:37;;;;;;;;;;;;;;;14.70;68.14;101390.81;5063720;28;1396;-78
2023/06/09 03:48:05;;;;;;;;;;;;;;;14.68;68.26;101384.91;5046597;28;1393;-78
2023/06/09 03:50:30;;;;;;;;;;;;;;;14.66;68.54;101384.19;5043862;28;1138;-78
2023/06/09 03:52:55;;;;;;;;;;;;;;;14.67;68.40;101396.28;5046770;28;1434;-79
2023/06/09 03:55:22;;;;;;;;;;;;;;;14.66;68.55;101399.88;5051427;28;1529;-79
2023/06/09 03:57:47;;;;;;;;;;;;;;;14.64;68.30;101390.53;5045400;28;1427;-78
2023/06/09 04:00:13;;;;;;;;;;;;;;;14.61;69.15;101386.41;5059282;28;1906;-78
2023/06/09 04:02:38;;;;;;;;;;;;;;;14.60;69.04;101389.97;5041280;28;1294;-79
2023/06/09 04:05:04;;;;;;;;;;;;;;;14.56;68.90;101389.41;5045308;28;1344;-79
2023/06/09 04:07:30;;;;;;;;;;;;;;;14.57;69.16;101390.28;5057254;28;1255;-79
2023/06/09 04:09:55;;;;;;;;;;;;;;;14.60;69.04;101389.97;5049630;28;1120;-79
2023/06/09 04:12:20;;;;;;;;;;;;;;;14.60;69.35;101403.03;5044997;28;1694;-80
2023/06/09 04:14:45;;;;;;;;;;;;;;;14.61;68.95;101407.28;5053385;28;1551;-79
2023/06/09 04:17:11;;;;;;;;;;;;;;;14.55;69.25;101407.84;5046119;28;1808;-80
2023/06/09 04:19:36;;;;;;;;;;;;;;;14.52;69.63;101398.50;5048014;28;1390;-78
2023/06/09 04:22:07;;;;;;;;;;;;;;;14.52;69.46;101402.91;5044781;28;1898;-79
2023/06/09 04:24:34;;;;;;;;;;;;;;;14.52;70.36;101403.72;5057971;28;1134;-79
2023/06/09 04:27:01;;;;;;;;;;;;;;;14.55;69.59;101400.00;5059354;28;1117;-79
2023/06/09 04:29:26;;;;;;;;;;;;;;;14.60;69.57;101410.88;5048152;28;1469;-79
2023/06/09 04:31:53;;;;;;;;;;;;;;;14.54;69.99;101417.44;5062771;28;1440;-79
2023/06/09 04:34:18;;;;;;;;;;;;;;;14.52;70.31;101403.72;5062038;28;1240;-79
2023/06/09 04:36:45;;;;;;;;;;;;;;;14.54;70.08;101406.19;5078022;28;1402;-80
2023/06/09 04:39:12;;;;;;;;;;;;;;;14.51;70.16;101411.69;5039768;28;1435;-79
2023/06/09 04:41:37;;;;;;;;;;;;;;;14.54;70.11;101414.03;5052528;28;1890;-80
2023/06/09 04:44:06;;;;;;;;;;;;;;;14.56;70.27;101414.69;5051970;28;1187;-79
2023/06/09 04:46:37;;;;;;;;;;;;;;;14.59;70.09;101414.44;5062147;28;1146;-78
2023/06/09 04:49:08;;;;;;;;;;;;;;;14.59;70.88;101409.22;5049484;28;1548;-80
2023/06/09 04:51:41;;;;;;;;;;;;;;;14.58;71.53;101407.56;5080515;28;1230;-79
2023/06/09 04:54:07;;;;;;;;;;;;;;;14.56;70.74;101409.47;5055993;28;1239;-79
2023/06/09 04:56:32;;;;;;;;;;;;;;;14.58;71.13;101413.63;5058524;28;1289;-79
2023/06/09 04:58:58;;;;;;;;;;;;;;;14.56;71.13;101419.91;5045915;28;1654;-80
2023/06/09 05:01:23;;;;;;;;;;;;;;;14.60;70.95;101416.09;5062829;28;1976;-79
2023/06/09 05:03:48;;;;;;;;;;;;;;;14.59;71.18;101425.69;5052696;28;1369;-79
2023/06/09 05:06:13;;;;;;;;;;;;;;;14.62;71.28;101414.16;5057197;28;1548;-80
2023/06/09 05:08:39;;;;;;;;;;;;;;;14.62;71.28;101419.38;5053111;28;1424;-78
2023/06/09 05:11:04;;;;;;;;;;;;;;;14.63;71.77;101423.66;5059809;28;1219;-79
2023/06/09 05:13:29;;;;;;;;;;;;;;;14.64;71.80;101419.25;5051709;28;1471;-78
2023/06/09 05:15:57;;;;;;;;;;;;;;;14.63;72.13;101426.25;5052935;28;1477;-78
2023/06/09 05:18:22;;;;;;;;;;;;;;;14.65;71.57;101424.34;5052548;28;1497;-79
2023/06/09 05:20:47;;;;;;;;;;;;;;;14.66;71.95;101420.75;5053262;28;1934;-78
2023/06/09 05:23:13;;;;;;;;;;;;;;;14.71;72.24;101423.78;5044819;28;1554;-78
2023/06/09 05:25:38;;;;;;;;;;;;;;;14.75;72.84;101425.16;5050429;28;1203;-76
2023/06/09 05:28:03;;;;;;;;;;;;;;;14.77;72.27;101418.00;5053126;28;1505;-77
2023/06/09 05:30:28;;;;;;;;;;;;;;;14.80;72.66;101415.13;5051539;28;1321;-77
2023/06/09 05:32:53;;;;;;;;;;;;;;;14.82;72.39;101421.03;5053942;28;1422;-78
2023/06/09 05:35:19;;;;;;;;;;;;;;;14.90;72.18;101417.72;5052855;28;1464;-78
2023/06/09 05:37:49;;;;;;;;;;;;;;;14.91;72.22;101415.94;5057650;28;1137;-77
2023/06/09 05:40:14;;;;;;;;;;;;;;;14.99;72.46;101416.06;5053984;28;1913;-77
2023/06/09 05:42:39;;;;;;;;;;;;;;;15.03;73.19;101407.81;5052406;28;1026;-77
2023/06/09 05:45:05;;;;;;;;;;;;;;;15.07;72.78;101413.56;5054334;28;1161;-77
2023/06/09 05:47:31;;;;;;;;;;;;;;;15.14;72.35;101414.69;5056227;28;1828;-77
2023/06/09 05:49:56;;;;;;;;;;;;;;;15.14;72.85;101423.34;5041673;28;1318;-78
2023/06/09 05:52:21;;;;;;;;;;;;;;;15.19;72.54;101417.69;5053083;28;1245;-79
2023/06/09 05:54:47;;;;;;;;;;;;;;;15.26;72.73;101421.41;5051641;28;1244;-77
2023/06/09 05:57:13;;;;;;;;;;;;;;;15.35;72.51;101431.00;5051471;28;1321;-77
2023/06/09 05:59:39;;;;;;;;;;;;;;;15.32;72.53;101422.63;5046008;28;1514;-77
2023/06/09 06:02:04;;;;;;;;;;;;;;;15.36;72.99;101419.56;5058515;28;1897;-76
2023/06/09 06:04:30;;;;;;;;;;;;;;;15.45;72.48;101422.31;5057299;28;1188;-77
2023/06/09 06:06:55;;;;;;;;;;;;;;;15.54;72.63;101427.53;5050926;28;1052;-77
2023/06/09 06:09:21;;;;;;;;;;;;;;;15.59;72.64;101424.44;5046182;28;1347;-76
2023/06/09 06:11:46;;;;;;;;;;;;;;;15.65;72.98;101423.91;5048253;28;1332;-78
2023/06/09 06:14:11;;;;;;;;;;;;;;;15.70;72.59;101421.69;5055934;28;1277;-77
2023/06/09 06:16:37;;;;;;;;;;;;;;;15.76;72.30;101426.34;5059390;28;1374;-76
2023/06/09 06:19:02;;;;;;;;;;;;;;;15.84;72.59;101415.19;5057442;28;1140;-76
2023/06/09 06:21:27;;;;;;;;;;;;;;;15.89;72.25;101413.78;5054776;28;1925;-77
2023/06/09 06:23:52;;;;;;;;;;;;;;;15.98;72.41;101419.09;5050527;28;1266;-78
2023/06/09 06:26:17;;;;;;;;;;;;;;;16.05;72.19;101420.97;5051256;28;1219;-78
2023/06/09 06:28:43;;;;;;;;;;;;;;;16.15;73.37;101420.91;5062888;28;1269;-78
2023/06/09 06:31:08;;;;;;;;;;;;;;;16.26;72.47;101422.50;5054254;28;1696;-78
2023/06/09 06:33:34;;;;;;;;;;;;;;;16.32;71.78;101422.75;5048477;28;1213;-78
2023/06/09 06:36:00;;;;;;;;;;;;;;;16.35;71.79;101425.06;5052180;28;1279;-78
2023/06/09 06:38:25;;;;;;;;;;;;;;;16.39;71.70;101422.97;5035881;28;1407;-77
2023/06/09 06:40:51;;;;;;;;;;;;;;;16.44;71.64;101421.56;5051447;28;1957;-78
2023/06/09 06:43:16;;;;;;;;;;;;;;;16.53;71.80;101419.03;5050496;28;1338;-78
2023/06/09 06:45:41;;;;;;;;;;;;;;;16.61;71.63;101416.47;5054453;28;1500;-78
2023/06/09 06:48:06;;;;;;;;;;;;;;;16.73;71.61;101410.06;5039695;28;1620;-78
2023/06/09 06:50:32;;;;;;;;;;;;;;;16.86;71.45;101418.38;5049158;28;1263;-78
2023/06/09 06:52:57;;;;;;;;;;;;;;;16.92;71.32;101430.03;5055515;28;1348;-78
2023/06/09 06:55:23;;;;;;;;;;;;;;;17.03;70.83;101426.34;5058055;28;1269;-79
2023/06/09 06:57:48;;;;;;;;;;;;;;;17.11;70.70;101421.19;5046503;28;1266;-78
2023/06/09 07:00:14;;;;;;;;;;;;;;;17.18;70.64;101414.34;5046114;28;1895;-78
2023/06/09 07:02:40;;;;;;;;;;;;;;;17.28;70.79;101420.31;5055536;28;1243;-78
2023/06/09 07:05:09;;;;;;;;;;;;;;;17.40;70.01;101418.25;5048931;28;1318;-79
2023/06/09 07:07:34;;;;;;;;;;;;;;;17.43;69.63;101418.78;5057741;28;1235;-78
2023/06/09 07:10:00;;;;;;;;;;;;;;;17.51;69.96;101410.94;5040476;28;1223;-79
2023/06/09 07:12:25;;;;;;;;;;;;;;;17.62;70.17;101416.91;5046041;28;1085;-79
2023/06/09 07:14:50;;;;;;;;;;;;;;;17.74;69.78;101420.91;5042193;28;1180;-78
2023/06/09 07:17:15;;;;;;;;;;;;;;;17.83;69.53;101414.69;5043230;28;1509;-79
2023/06/09 07:19:40;;;;;;;;;;;;;;;17.89;69.52;101419.34;5051210;28;1295;-79
2023/06/09 07:22:06;;;;;;;;;;;;;;;17.99;69.49;101416.56;5056718;28;1975;-79
2023/06/09 07:24:31;;;;;;;;;;;;;;;18.08;69.24;101418.25;5040884;28;1294;-78
2023/06/09 07:26:56;;;;;;;;;;;;;;;18.14;69.10;101416.78;5053537;28;1383;-79
2023/06/09 07:29:21;;;;;;;;;;;;;;;18.25;69.04;101424.38;5048715;28;1480;-79
2023/06/09 07:31:47;;;;;;;;;;;;;;;18.36;69.29;101418.81;5052659;28;1238;-80
2023/06/09 07:34:12;;;;;;;;;;;;;;;18.49;69.25;101427.03;5040517;28;1347;-79
2023/06/09 07:36:40;;;;;;;;;;;;;;;18.64;69.10;101413.25;5056323;28;1321;-78
2023/06/09 07:39:05;;;;;;;;;;;;;;;18.75;68.81;101420.81;5044989;28;1060;-78
2023/06/09 07:41:31;;;;;;;;;;;;;;;18.87;68.72;101424.78;5048206;28;1898;-79
2023/06/09 07:43:56;;;;;;;;;;;;;;;18.97;68.22;101424.59;5048817;28;1524;-78
2023/06/09 07:46:22;;;;;;;;;;;;;;;19.05;67.70;101428.06;5056535;28;1157;-78
2023/06/09 07:48:47;;;;;;;;;;;;;;;19.13;67.41;101429.84;5055124;28;1232;-79
2023/06/09 07:51:14;;;;;;;;;;;;;;;19.21;67.63;101418.50;5046613;28;1773;-78
2023/06/09 07:53:39;;;;;;;;;;;;;;;19.28;67.19;101422.94;5049557;28;1251;-78
2023/06/09 07:56:04;;;;;;;;;;;;;;;19.36;66.81;101432.63;5055475;28;1664;-78
2023/06/09 07:58:29;;;;;;;;;;;;;;;19.45;67.10;101430.78;5070541;28;1267;-78
2023/06/09 08:00:55;;;;;;;;;;;;;;;19.54;66.59;101427.13;5045263;28;1981;-78
2023/06/09 08:03:20;;;;;;;;;;;;;;;19.62;66.79;101425.34;5045870;28;1458;-78
2023/06/09 08:05:46;;;;;;;;;;;;;;;19.76;66.67;101423.00;5050038;28;1173;-78
2023/06/09 08:08:11;;;;;;;;;;;;;;;19.86;66.33;101426.25;5050442;28;1561;-78
2023/06/09 08:10:36;;;;;;;;;;;;;;;19.94;65.93;101426.19;5048292;28;1024;-79
2023/06/09 08:13:02;;;;;;;;;;;;;;;20.03;66.00;101422.53;5052497;28;1360;-78
2023/06/09 08:15:27;;;;;;;;;;;;;;;20.11;65.98;101430.38;5051734;28;1274;-79
2023/06/09 08:17:52;;;;;;;;;;;;;;;20.24;65.37;101429.00;5050572;28;1309;-79
2023/06/09 08:20:17;;;;;;;;;;;;;;;20.37;65.33;101424.81;5045403;28;1973;-79
2023/06/09 08:22:43;;;;;;;;;;;;;;;20.50;64.54;101424.25;5046612;28;1257;-78
2023/06/09 08:25:09;;;;;;;;;;;;;;;20.55;64.56;101427.19;5054235;28;1333;-78
2023/06/09 08:27:35;;;;;;;;;;;;;;;20.67;64.99;101419.69;5047490;28;1249;-78
2023/06/09 08:30:00;;;;;;;;;;;;;;;20.82;64.09;101423.19;5046948;28;1323;-78
2023/06/09 08:32:25;;;;;;;;;;;;;;;20.85;62.78;101422.00;5050519;28;1286;-79
2023/06/09 08:34:51;;;;;;;;;;;;;;;20.89;63.59;101418.03;5039761;28;1281;-78
2023/06/09 08:37:16;;;;;;;;;;;;;;;20.96;62.43;101413.66;5051027;28;1329;-79
2023/06/09 08:39:41;;;;;;;;;;;;;;;21.04;62.71;101416.22;5051437;28;1203;-78
2023/06/09 08:42:10;;;;;;;;;;;;;;;21.16;62.96;101420.09;5055009;28;1963;-78
2023/06/09 08:44:38;;;;;;;;;;;;;;;21.29;62.96;101402.81;5051237;28;1082;-79
2023/06/09 08:47:03;;;;;;;;;;;;;;;21.42;62.41;101408.28;5041591;28;1488;-79
2023/06/09 08:49:28;;;;;;;;;;;;;;;21.54;62.63;101412.09;5044172;28;1280;-78
2023/06/09 08:51:54;;;;;;;;;;;;;;;21.65;61.59;101414.28;5048825;28;1219;-78
2023/06/09 08:54:20;;;;;;;;;;;;;;;21.72;61.86;101415.19;5042025;28;1263;-78
2023/06/09 08:56:47;;;;;;;;;;;;;;;21.82;61.91;101414.09;5035367;28;1314;-78
2023/06/09 08:59:13;;;;;;;;;;;;;;;21.96;61.87;101410.59;5058227;28;1544;-78
2023/06/09 09:01:38;;;;;;;;;;;;;;;22.11;61.46;101408.75;5046343;28;1894;-79
2023/06/09 09:04:04;;;;;;;;;;;;;;;22.21;60.82;101406.66;5048189;28;1339;-78
2023/06/09 09:06:29;;;;;;;;;;;;;;;22.35;60.83;101415.50;5043877;28;1449;-78
2023/06/09 09:08:54;;;;;;;;;;;;;;;22.47;60.23;101413.19;5052679;28;1253;-78
2023/06/09 09:11:19;;;;;;;;;;;;;;;22.50;59.38;101412.81;5049055;28;1277;-79
2023/06/09 09:13:48;;;;;;;;;;;;;;;22.59;59.73;101411.66;5044422;28;1147;-78
2023/06/09 09:16:14;;;;;;;;;;;;;;;22.70;59.39;101400.56;5049460;28;1282;-78
2023/06/09 09:18:43;;;;;;;;;;;;;;;22.83;59.66;101407.00;5044271;28;1207;-79
2023/06/09 09:21:08;;;;;;;;;;;;;;;22.95;58.95;101405.50;5056481;28;1910;-78
2023/06/09 09:23:33;;;;;;;;;;;;;;;22.99;58.82;101407.53;5049228;28;1395;-79
2023/06/09 09:25:59;;;;;;;;;;;;;;;23.02;58.25;101401.88;5040737;28;1353;-79
2023/06/09 09:28:25;;;;;;;;;;;;;;;23.13;58.13;101402.38;5049376;28;1101;-79
2023/06/09 09:30:51;;;;;;;;;;;;;;;23.22;58.25;101393.25;5056622;28;1040;-79
2023/06/09 09:33:18;;;;;;;;;;;;;;;23.34;57.77;101397.00;5055643;28;1188;-79
2023/06/09 09:35:44;;;;;;;;;;;;;;;23.42;57.35;101390.72;5052536;28;1263;-79
2023/06/09 09:38:11;;;;;;;;;;;;;;;23.52;56.65;101386.72;5046881;28;1420;-79
2023/06/09 09:40:40;;;;;;;;;;;;;;;23.67;57.49;101383.94;5050805;28;1959;-79
2023/06/09 09:43:08;;;;;;;;;;;;;;;23.83;57.12;101383.59;5056963;28;1236;-79
2023/06/09 09:45:37;;;;;;;;;;;;;;;23.92;55.71;101386.06;5042010;28;1502;-80
2023/06/09 09:48:07;;;;;;;;;;;;;;;24.00;56.10;101384.03;5057650;28;1383;-79
2023/06/09 09:50:34;;;;;;;;;;;;;;;24.16;55.48;101382.06;5060113;28;1199;-80
2023/06/09 09:53:01;;;;;;;;;;;;;;;24.30;56.03;101383.69;5043855;28;1754;-80
2023/06/09 09:55:26;;;;;;;;;;;;;;;24.45;55.74;101375.59;5051300;28;1637;-80
2023/06/09 09:57:52;;;;;;;;;;;;;;;24.58;55.44;101380.88;5067026;28;1132;-80
2023/06/09 10:00:18;;;;;;;;;;;;;;;24.66;53.37;101377.22;5055397;28;1926;-79
2023/06/09 10:02:44;;;;;;;;;;;;;;;24.71;54.73;101372.91;5047806;28;1285;-80
2023/06/09 10:05:10;;;;;;;;;;;;;;;24.83;53.88;101379.25;5058549;28;1357;-80
2023/06/09 10:07:40;;;;;;;;;;;;;;;24.90;53.19;101385.38;5058463;28;1493;-79
2023/06/09 10:10:08;;;;;;;;;;;;;;;24.90;52.62;101381.91;5051825;28;949;-80
2023/06/09 10:12:35;;;;;;;;;;;;;;;24.93;52.56;101370.84;5050804;28;1332;-80
2023/06/09 10:15:01;;;;;;;;;;;;;;;25.08;53.15;101381.28;5054288;28;1217;-80
2023/06/09 10:17:27;;;;;;;;;;;;;;;25.17;52.02;101380.03;5061190;28;1588;-79
2023/06/09 10:19:52;;;;;;;;;;;;;;;25.26;51.17;101362.84;5051422;28;1096;-80
2023/06/09 10:22:18;;;;;;;;;;;;;;;25.34;51.34;101370.59;5047509;28;1963;-80
2023/06/09 10:24:44;;;;;;;;;;;;;;;25.57;49.55;101385.22;5060933;28;1175;-80
2023/06/09 10:27:09;;;;;;;;;;;;;;;25.51;48.88;101380.75;5059855;28;1214;-79
2023/06/09 10:29:37;;;;;;;;;;;;;;;25.50;50.56;101384.44;5038015;28;1189;-79
2023/06/09 10:32:03;;;;;;;;;;;;;;;25.56;48.33;101380.94;5046137;28;1281;-79
2023/06/09 10:34:32;;;;;;;;;;;;;;;25.68;49.55;101365.94;5060956;28;1149;-80
2023/06/09 10:36:57;;;;;;;;;;;;;;;25.80;49.63;101368.78;5053379;28;1225;-79
2023/06/09 10:39:25;;;;;;;;;;;;;;;25.89;49.46;101368.34;5048873;28;1345;-80
2023/06/09 10:42:07;;;;;;;;;;;;;;;25.93;47.75;101369.53;5046327;28;1894;-80
2023/06/09 10:44:44;;;;;;;;;;;;;;;25.98;48.83;101370.72;5056689;28;1122;-80
2023/06/09 10:47:10;;;;;;;;;;;;;;;26.01;47.91;101367.66;5051083;28;1219;-79
2023/06/09 10:49:36;;;;;;;;;;;;;;;26.06;48.22;101363.34;5057649;28;1109;-79
2023/06/09 10:52:07;;;;;;;;;;;;;;;26.17;48.57;101359.97;5044987;28;1313;-79
2023/06/09 10:54:35;;;;;;;;;;;;;;;26.35;48.31;101350.44;5060785;28;1237;-79
2023/06/09 10:57:20;;;;;;;;;;;;;;;26.48;47.87;101356.50;5048777;28;1427;-79
2023/06/09 10:59:45;;;;;;;;;;;;;;;26.59;47.42;101357.63;5055725;28;1174;-79
2023/06/09 11:02:11;;;;;;;;;;;;;;;26.62;46.07;101349.22;5039954;28;1898;-80
2023/06/09 11:04:45;;;;;;;;;;;;;;;26.66;45.75;101349.59;5045598;28;1254;-79
2023/06/09 11:07:12;;;;;;;;;;;;;;;26.71;45.55;101339.91;5053371;28;1296;-79
2023/06/09 11:09:37;;;;;;;;;;;;;;;26.79;45.95;101346.81;5052274;28;1242;-79
2023/06/09 11:12:02;;;;;;;;;;;;;;;26.96;43.79;101349.72;5043658;28;1171;-79
2023/06/09 11:14:46;;;;;;;;;;;;;;;26.96;45.36;101347.88;5045321;28;1297;-79
2023/06/09 11:17:14;;;;;;;;;;;;;;;26.90;43.01;101338.09;5058299;28;1036;-79
2023/06/09 11:19:39;;;;;;;;;;;;;;;26.89;44.17;101339.13;5042226;28;1259;-78
2023/06/09 11:22:05;;;;;;;;;;;;;;;26.94;42.89;101333.13;5059046;28;1963;-78
2023/06/09 11:24:49;;;;;;;;;;;;;;;27.00;44.00;101330.41;5058809;28;1324;-78
2023/06/09 11:27:18;;;;;;;;;;;;;;;26.98;43.50;101337.00;5060396;28;1242;-78
2023/06/09 11:29:43;;;;;;;;;;;;;;;26.99;43.48;101330.63;5057210;28;1754;-79
2023/06/09 11:32:09;;;;;;;;;;;;;;;27.05;43.23;101323.59;5054817;28;1069;-77
2023/06/09 11:34:57;;;;;;;;;;;;;;;27.03;43.94;101325.69;5046974;28;1420;-76
2023/06/09 11:37:23;;;;;;;;;;;;;;;27.08;43.50;101316.03;5057349;28;1099;-76
2023/06/09 11:39:48;;;;;;;;;;;;;;;27.15;43.59;101319.41;5056002;28;1101;-76
2023/06/09 11:42:14;;;;;;;;;;;;;;;27.25;43.81;101318.91;5045067;28;1985;-76
2023/06/09 11:44:40;;;;;;;;;;;;;;;27.37;42.65;101319.78;5045413;28;1365;-79
2023/06/09 11:47:24;;;;;;;;;;;;;;;27.47;43.34;101320.06;5043048;28;1049;-79
2023/06/09 11:49:59;;;;;;;;;;;;;;;27.50;42.28;101314.25;5046790;28;2202;-79
2023/06/09 11:52:24;;;;;;;;;;;;;;;27.49;42.43;101314.50;5050893;28;1254;-79
2023/06/09 11:54:50;;;;;;;;;;;;;;;27.52;42.65;101314.03;5046462;28;1239;-78
2023/06/09 11:57:16;;;;;;;;;;;;;;;27.49;42.52;101320.63;5052152;28;1354;-79
2023/06/09 11:59:41;;;;;;;;;;;;;;;27.49;42.03;101315.31;5056262;28;1365;-79
2023/06/09 12:02:07;;;;;;;;;;;;;;;27.49;42.93;101309.97;5066108;28;1898;-78
2023/06/09 12:04:32;;;;;;;;;;;;;;;27.53;41.21;101313.81;5060423;28;1297;-79
2023/06/09 12:06:58;;;;;;;;;;;;;;;27.54;41.11;101306.66;5050822;28;1174;-79
2023/06/09 12:09:23;;;;;;;;;;;;;;;27.63;41.14;101299.13;5053400;28;1665;-79
2023/06/09 12:11:52;;;;;;;;;;;;;;;27.57;41.53;101286.72;5054263;28;1249;-79
2023/06/09 12:14:18;;;;;;;;;;;;;;;27.66;41.46;101298.69;5055110;28;1168;-79
2023/06/09 12:16:43;;;;;;;;;;;;;;;27.63;41.36;101299.13;5052924;28;1240;-79
2023/06/09 12:19:09;;;;;;;;;;;;;;;27.68;40.98;101296.59;5046228;28;1024;-80
2023/06/09 12:21:34;;;;;;;;;;;;;;;27.72;40.45;101285.28;5049921;28;1952;-80
2023/06/09 12:23:59;;;;;;;;;;;;;;;27.77;39.90;101289.94;5046723;28;1148;-81
2023/06/09 12:26:25;;;;;;;;;;;;;;;27.66;40.02;101277.38;5050410;28;1338;-86
2023/06/09 12:28:54;;;;;;;;;;;;;;;27.65;39.97;101267.75;5046872;28;1333;-85
2023/06/09 12:31:19;;;;;;;;;;;;;;;27.71;39.51;101274.88;5059794;28;1412;-79
2023/06/09 12:33:48;;;;;;;;;;;;;;;27.80;37.31;101268.16;5051326;28;1239;-78
2023/06/09 12:36:13;;;;;;;;;;;;;;;27.94;38.06;101269.59;5056316;28;1234;-79
2023/06/09 12:38:39;;;;;;;;;;;;;;;27.93;35.77;101278.63;5059951;28;1431;-77
2023/06/09 12:41:08;;;;;;;;;;;;;;;28.01;35.93;101275.63;5060567;28;1952;-77
2023/06/09 12:43:56;;;;;;;;;;;;;;;28.02;36.93;101265.75;5059362;28;955;-81